createdAt,value
2023-04-12T00:00:22.558Z,76.97
2023-04-12T00:02:54.508Z,76.15
2023-04-12T00:05:24.132Z,75.11
2023-04-12T00:07:54.336Z,74.51
2023-04-12T00:10:23.751Z,75.88
2023-04-12T00:12:51.705Z,75.99
2023-04-12T00:15:20.598Z,76.49
2023-04-12T00:17:48.537Z,75.75
2023-04-12T00:20:18.442Z,76.91
2023-04-12T00:22:46.437Z,80.61
2023-04-12T00:25:15.687Z,83.99
2023-04-12T00:27:43.627Z,89.08
2023-04-12T00:30:12.743Z,93.64
2023-04-12T00:32:45.123Z,100.00
2023-04-12T00:35:14.201Z,100.00
2023-04-12T00:37:43.959Z,100.00
2023-04-12T00:40:12.602Z,100.00
2023-04-12T00:42:41.124Z,100.00
2023-04-12T00:45:09.588Z,100.00
2023-04-12T00:47:38.305Z,100.00
2023-04-12T00:50:09.758Z,100.00
2023-04-12T00:52:38.176Z,100.00
2023-04-12T00:55:10.098Z,100.00
2023-04-12T00:57:42.290Z,100.00
2023-04-12T01:00:17.070Z,100.00
2023-04-12T01:02:47.186Z,100.00
2023-04-12T01:05:22.140Z,100.00
2023-04-12T01:08:00.839Z,100.00
2023-04-12T01:10:34.888Z,100.00
2023-04-12T01:13:11.430Z,100.00
2023-04-12T01:15:42.521Z,100.00
2023-04-12T01:18:14.786Z,100.00
2023-04-12T01:20:45.020Z,100.00
2023-04-12T01:23:31.240Z,100.00
2023-04-12T01:26:21.745Z,100.00
2023-04-12T01:28:53.210Z,100.00
2023-04-12T01:31:21.936Z,100.00
2023-04-12T01:33:53.024Z,100.00
2023-04-12T04:56:23.540Z,100.00
2023-04-12T04:58:55.414Z,100.00
2023-04-12T05:01:28.923Z,100.00
2023-04-12T05:04:00.033Z,100.00
2023-04-12T05:06:29.235Z,100.00
2023-04-12T05:08:59.285Z,100.00
2023-04-12T05:11:30.262Z,100.00
2023-04-12T05:13:58.928Z,100.00
2023-04-12T05:16:27.222Z,100.00
2023-04-12T05:18:55.855Z,100.00
2023-04-12T05:21:24.678Z,100.00
2023-04-12T05:23:53.296Z,100.00
2023-04-12T05:26:21.670Z,100.00
2023-04-12T05:28:53.397Z,100.00
2023-04-12T05:31:23.362Z,100.00
2023-04-12T05:33:53.933Z,100.00
2023-04-12T05:36:26.731Z,100.00
2023-04-12T05:38:55.822Z,100.00
2023-04-12T05:41:24.414Z,100.00
2023-04-12T05:43:53.636Z,100.00
2023-04-12T05:46:21.938Z,100.00
2023-04-12T05:48:52.135Z,100.00
2023-04-12T05:51:30.661Z,100.00
2023-04-12T05:54:07.212Z,100.00
2023-04-12T05:56:37.632Z,100.00
2023-04-12T05:59:07.526Z,100.00
2023-04-12T06:01:36.085Z,100.00
2023-04-12T06:04:06.202Z,100.00
2023-04-12T06:06:35.274Z,100.00
2023-04-12T06:09:05.089Z,100.00
2023-04-12T06:11:35.719Z,100.00
2023-04-12T06:14:04.030Z,100.00
2023-04-12T06:16:33.785Z,100.00
2023-04-12T06:19:02.398Z,100.00
2023-04-12T06:21:30.385Z,100.00
2023-04-12T06:23:59.830Z,100.00
2023-04-12T06:26:37.343Z,100.00
2023-04-12T06:29:10.482Z,100.00
2023-04-12T06:31:41.714Z,100.00
2023-04-12T06:34:10.332Z,100.00
2023-04-12T06:36:41.753Z,100.00
2023-04-12T06:39:12.417Z,100.00
2023-04-12T06:41:43.587Z,100.00
2023-04-12T06:44:11.838Z,100.00
2023-04-12T06:46:41.367Z,100.00
2023-04-12T06:49:09.955Z,100.00
2023-04-12T06:51:38.211Z,100.00
2023-04-12T06:54:06.563Z,100.00
2023-04-12T06:56:38.465Z,100.00
2023-04-12T06:59:07.128Z,100.00
2023-04-12T07:01:35.472Z,100.00
2023-04-12T07:04:05.150Z,100.00
2023-04-12T07:06:33.466Z,100.00
2023-04-12T07:09:01.712Z,100.00
2023-04-12T07:11:31.774Z,100.00
2023-04-12T07:14:00.510Z,100.00
2023-04-12T07:16:29.514Z,100.00
2023-04-12T07:18:58.205Z,100.00
2023-04-12T07:21:28.502Z,100.00
2023-04-12T07:23:59.419Z,100.00
2023-04-12T07:26:27.682Z,100.00
2023-04-12T07:28:56.328Z,100.00
2023-04-12T07:31:25.935Z,100.00
2023-04-12T07:33:54.612Z,100.00
2023-04-12T07:36:23.786Z,100.00
2023-04-12T07:38:56.225Z,100.00
2023-04-12T07:41:24.783Z,100.00
2023-04-12T07:43:53.023Z,100.00
2023-04-12T07:46:26.959Z,100.00
2023-04-12T07:48:55.515Z,100.00
2023-04-12T07:51:24.128Z,100.00
2023-04-12T07:53:53.899Z,100.00
2023-04-12T07:56:22.133Z,100.00
2023-04-12T07:58:51.935Z,100.00
2023-04-12T08:01:20.037Z,100.00
2023-04-12T08:03:48.929Z,100.00
2023-04-12T08:06:17.499Z,100.00
2023-04-12T08:08:50.925Z,100.00
2023-04-12T08:11:21.020Z,100.00
2023-04-12T08:13:50.338Z,100.00
2023-04-12T08:16:18.787Z,100.00
2023-04-12T08:18:46.957Z,100.00
2023-04-12T08:21:15.450Z,100.00
2023-04-12T08:23:44.357Z,100.00
2023-04-12T08:26:12.427Z,100.00
2023-04-12T08:28:43.057Z,100.00
2023-04-12T08:31:14.057Z,100.00
2023-04-12T08:33:42.252Z,100.00
2023-04-12T08:36:11.568Z,100.00
2023-04-12T08:38:45.411Z,100.00
2023-04-12T08:41:15.771Z,100.00
2023-04-12T08:43:47.769Z,100.00
2023-04-12T08:46:17.398Z,100.00
2023-04-12T08:48:46.455Z,100.00
2023-04-12T08:51:16.988Z,100.00
2023-04-12T08:53:45.587Z,100.00
2023-04-12T08:56:14.730Z,100.00
2023-04-12T08:58:47.222Z,100.00
2023-04-12T09:01:18.291Z,100.00
2023-04-12T09:03:48.121Z,100.00
2023-04-12T09:06:16.461Z,100.00
2023-04-12T09:08:54.829Z,100.00
2023-04-12T09:11:24.503Z,100.00
2023-04-12T09:13:56.542Z,100.00
2023-04-12T09:16:39.318Z,100.00
2023-04-12T09:19:08.428Z,100.00
2023-04-12T09:21:37.604Z,100.00
2023-04-12T09:24:12.306Z,100.00
2023-04-12T09:26:42.823Z,100.00
2023-04-12T09:29:24.012Z,100.00
2023-04-12T09:32:02.870Z,100.00
2023-04-12T09:34:31.593Z,100.00
2023-04-12T09:37:00.447Z,100.00
2023-04-12T09:39:32.901Z,100.00
2023-04-12T09:42:18.117Z,100.00
2023-04-12T09:44:57.534Z,100.00
2023-04-12T09:47:37.963Z,100.00
2023-04-12T09:50:07.298Z,100.00
2023-04-12T09:52:39.238Z,100.00
2023-04-12T09:55:10.782Z,100.00
2023-04-12T09:57:41.016Z,100.00
2023-04-12T10:00:13.161Z,100.00
2023-04-12T10:02:45.026Z,100.00
2023-04-12T10:05:16.034Z,100.00
2023-04-12T10:07:44.628Z,100.00
2023-04-12T10:10:14.077Z,100.00
2023-04-12T10:12:43.220Z,100.00
2023-04-12T10:15:15.567Z,100.00
2023-04-12T10:17:46.674Z,100.00
2023-04-12T10:20:17.212Z,100.00
2023-04-12T10:22:46.614Z,100.00
2023-04-12T10:25:15.775Z,100.00
2023-04-12T10:27:44.176Z,100.00
2023-04-12T10:30:22.590Z,100.00
2023-04-12T10:33:12.659Z,100.00
2023-04-12T10:35:51.742Z,100.00
2023-04-12T10:38:20.935Z,100.00
2023-04-12T10:41:08.143Z,100.00
2023-04-12T10:43:36.220Z,100.00
2023-04-12T10:46:06.884Z,100.00
2023-04-12T10:48:37.096Z,100.00
2023-04-12T10:51:15.269Z,100.00
2023-04-12T10:53:44.356Z,100.00
2023-04-12T10:56:39.023Z,100.00
2023-04-12T10:59:07.758Z,100.00
2023-04-12T11:01:42.156Z,100.00
2023-04-12T11:04:16.831Z,100.00
2023-04-12T11:07:04.969Z,100.00
2023-04-12T11:09:58.054Z,100.00
2023-04-12T11:12:35.606Z,100.00
2023-04-12T11:15:06.289Z,100.00
2023-04-12T11:18:07.790Z,100.00
2023-04-12T11:20:40.471Z,100.00
2023-04-12T11:23:11.284Z,100.00
2023-04-12T11:25:40.562Z,100.00
2023-04-12T11:28:25.198Z,100.00
2023-04-12T11:30:57.532Z,100.00
2023-04-12T11:33:35.157Z,100.00
2023-04-12T11:36:07.182Z,100.00
2023-04-12T11:38:37.118Z,100.00
2023-04-12T11:41:07.001Z,100.00
2023-04-12T11:43:35.895Z,100.00
2023-04-12T11:46:04.288Z,100.00
2023-04-12T11:48:34.144Z,100.00
2023-04-12T11:51:11.128Z,100.00
2023-04-12T11:53:41.438Z,100.00
2023-04-12T11:56:11.577Z,100.00
2023-04-12T11:58:41.226Z,100.00
2023-04-12T12:01:09.648Z,100.00
2023-04-12T12:03:38.352Z,100.00
2023-04-12T12:06:07.111Z,100.00
2023-04-12T12:08:36.010Z,100.00
2023-04-12T12:11:08.276Z,100.00
2023-04-12T12:13:47.420Z,100.00
2023-04-12T12:16:16.092Z,100.00
2023-04-12T12:18:45.903Z,100.00
2023-04-12T12:21:15.492Z,100.00
2023-04-12T12:23:43.814Z,100.00
2023-04-12T12:26:20.966Z,100.00
2023-04-12T12:28:53.935Z,100.00
2023-04-12T12:31:23.474Z,100.00
2023-04-12T12:33:58.002Z,100.00
2023-04-12T12:36:33.392Z,99.81
2023-04-12T12:39:07.393Z,94.04
2023-04-12T12:41:37.499Z,100.00
2023-04-12T12:44:07.456Z,100.00
2023-04-12T12:49:06.775Z,100.00
2023-04-12T12:51:34.835Z,100.00
2023-04-12T12:54:03.086Z,100.00
2023-04-12T12:56:30.984Z,100.00
2023-04-12T12:59:00.942Z,100.00
2023-04-12T13:01:29.248Z,100.00
2023-04-12T13:03:59.141Z,100.00
2023-04-12T13:06:28.648Z,100.00
2023-04-12T13:08:57.693Z,100.00
2023-04-12T13:11:26.330Z,100.00
2023-04-12T13:13:54.750Z,100.00
2023-04-12T13:16:26.809Z,100.00
2023-04-12T13:18:57.256Z,100.00
2023-04-12T13:21:27.191Z,100.00
2023-04-12T13:23:55.170Z,100.00
2023-04-12T13:26:25.650Z,100.00
2023-04-12T13:28:53.560Z,100.00
2023-04-12T13:31:21.700Z,100.00
2023-04-12T13:33:51.770Z,100.00
2023-04-12T13:36:20.287Z,100.00
2023-04-12T13:38:48.386Z,100.00
2023-04-12T13:41:16.928Z,100.00
2023-04-12T13:43:44.998Z,100.00
2023-04-12T13:46:16.727Z,100.00
2023-04-12T13:48:45.084Z,100.00
2023-04-12T13:51:14.419Z,100.00
2023-04-12T13:53:42.237Z,100.00
2023-04-12T13:56:11.168Z,100.00
2023-04-12T13:58:39.906Z,100.00
2023-04-12T14:01:08.831Z,100.00
2023-04-12T14:03:37.382Z,100.00
2023-04-12T14:06:06.044Z,100.00
2023-04-12T14:08:35.669Z,100.00
2023-04-12T14:11:04.913Z,100.00
2023-04-12T14:13:33.046Z,100.00
2023-04-12T14:16:04.276Z,100.00
2023-04-12T14:18:32.368Z,100.00
2023-04-12T14:21:04.264Z,100.00
2023-04-12T14:23:32.281Z,100.00
2023-04-12T14:26:02.259Z,100.00
2023-04-12T14:28:31.142Z,100.00
2023-04-12T14:31:04.317Z,100.00
2023-04-12T14:33:34.213Z,100.00
2023-04-12T14:36:05.330Z,100.00
2023-04-12T14:38:33.906Z,100.00
2023-04-12T14:41:08.455Z,100.00
2023-04-12T14:43:36.653Z,100.00
2023-04-12T14:46:05.002Z,100.00
2023-04-12T14:48:33.532Z,100.00
2023-04-12T14:51:03.691Z,100.00
2023-04-12T14:53:32.036Z,100.00
2023-04-12T14:56:02.708Z,100.00
2023-04-12T14:58:33.166Z,100.00
2023-04-12T15:01:02.962Z,100.00
2023-04-12T15:03:36.126Z,100.00
2023-04-12T15:06:04.614Z,100.00
2023-04-12T15:08:34.797Z,100.00
2023-04-12T15:11:02.988Z,100.00
2023-04-12T15:13:34.731Z,100.00
2023-04-12T15:16:05.392Z,100.00
2023-04-12T15:18:33.357Z,100.00
2023-04-12T15:21:03.119Z,100.00
2023-04-12T15:23:32.992Z,100.00
2023-04-12T15:26:02.089Z,100.00
2023-04-12T15:28:29.998Z,100.00
2023-04-12T15:30:59.747Z,100.00
2023-04-12T15:33:27.903Z,100.00
2023-04-12T15:35:57.581Z,100.00
2023-04-12T15:38:25.908Z,100.00
2023-04-12T15:40:55.087Z,100.00
2023-04-12T15:43:23.271Z,100.00
2023-04-12T15:45:53.114Z,100.00
2023-04-12T15:48:23.126Z,100.00
2023-04-12T15:50:51.256Z,100.00
2023-04-12T15:53:21.018Z,100.00
2023-04-12T15:55:49.389Z,100.00
2023-04-12T15:58:17.632Z,100.00
2023-04-12T16:00:45.387Z,100.00
2023-04-12T16:03:17.932Z,100.00
2023-04-12T16:05:47.629Z,100.00
2023-04-12T16:08:15.622Z,95.97
2023-04-12T16:10:44.242Z,84.98
2023-04-12T16:13:12.337Z,74.54
2023-04-12T16:15:39.909Z,69.57
2023-04-12T16:18:09.448Z,69.01
2023-04-12T16:20:37.703Z,73.69
2023-04-12T16:23:09.334Z,78.54
2023-04-12T16:25:37.357Z,80.15
2023-04-12T16:28:08.153Z,100.00
2023-04-12T16:30:36.791Z,100.00
2023-04-12T16:33:04.873Z,100.00
2023-04-12T16:35:33.211Z,100.00
2023-04-12T16:38:02.340Z,100.00
2023-04-12T16:40:32.571Z,100.00
2023-04-12T16:43:01.250Z,100.00
2023-04-12T16:45:29.312Z,85.45
2023-04-12T16:47:57.263Z,79.36
2023-04-12T16:50:29.097Z,77.28
2023-04-12T16:52:56.816Z,71.39
2023-04-12T16:55:25.592Z,72.08
2023-04-12T18:08:18.775Z,100.00
2023-04-12T18:10:47.966Z,100.00
2023-04-12T18:13:16.354Z,100.00
2023-04-12T18:15:45.340Z,100.00
2023-04-12T18:18:15.040Z,100.00
2023-04-12T18:20:43.484Z,100.00
2023-04-12T19:20:18.793Z,100.00
2023-04-12T19:22:46.824Z,100.00
2023-04-12T19:25:16.373Z,100.00
2023-04-12T19:27:45.823Z,100.00
2023-04-12T19:30:15.123Z,100.00
2023-04-12T19:32:43.458Z,100.00
2023-04-12T19:35:11.810Z,100.00
2023-04-12T19:37:43.696Z,100.00
2023-04-12T19:40:12.812Z,100.00
2023-04-12T19:42:42.828Z,100.00
2023-04-12T19:45:11.026Z,100.00
2023-04-12T19:47:44.828Z,100.00
2023-04-12T19:50:16.932Z,100.00
2023-04-12T19:52:46.861Z,100.00
2023-04-12T20:24:37.813Z,100.00
2023-04-12T20:27:07.471Z,100.00
2023-04-12T20:29:36.246Z,100.00
2023-04-12T20:32:04.258Z,100.00
2023-04-12T20:34:32.320Z,100.00
2023-04-12T20:39:53.659Z,100.00
2023-04-12T20:42:23.080Z,100.00
2023-04-12T20:44:51.237Z,100.00
2023-04-12T20:47:19.904Z,100.00
